Flugplatz Baumholder (ETEK)

Hier findest Du alle Informationen zum Flugplatz Baumholder (ETEK).

Informationen für Piloten zum Flugplatz Baumholder

Hier findest Du alle relevanten Informationen, die Du als Pilot benötigst, um Baumholder anzufliegen.

Flugplatz: Baumholder ICAO-Code: ETEK
Frequenz Turm: 122,100 Mhz GAFOR Gebiet: 44
Frequenz Ground: 122,100 Mhz Mogas: nein
Platzrunde: - Landegebühr: -
Platzhöhe: - Sunrise: 03:29 Uhr UTC
Pisten: 07/25 - 575 m x , ASPH Sunset: 19:26 Uhr UTC

Flugwetter am Flugplatz Baumholder

Die METAR Information stammen aus EDFH (33.25 km entfernt).

METAR Code:
2022/05/12 11:50
EDFH 121150Z 24012KT 190V280 9999 SCT042 18/07 Q1019

Flugschulen am Flugplatz Baumholder

Am Flugplatz Baumholder gibt es leider keine Flugschule.

Benachbarte Flugplätze und Flugschulen

Es gibt 22 weitere Flugplätze in einem Umkreis von 50 km um den Flugplatz Baumholder.

Jetzt anmelden

Passwort vergessen

Umfrage Archiv

Sendet Ihr ADS-B und/oder FLARM?

Ja
81.9 %
Nein
18.1 %
Stimmen: 149 | Diskussion
Anzeige: Roland Aircraft
Statistik Alle Mitglieder

Aktuell sind 59 Besucher online, davon 3 Mitglieder und 56 Gäste.


Mitglieder online:
Günter N  CB  slintes 

Anzeige: ULPower Aero Engines Anzeige: Pocket FMS